Time;durP1;ratioP1;P1;durP2;ratioP2;P2;SDS_P1;SDS_P2;PMS_P1;PMS_P2;Temp;Humidity;BMP_temperature;BMP_pressure;BME280_temperature;BME280_humidity;BME280_pressure;Samples;Min_cycle;Max_cycle;Signal;HPM_P1;HPM_P2
2022/04/15 00:00:40;;;;;;;3.30;2.20;;;;;;;;;;5028211;28;20534;-76
2022/04/15 00:03:07;;;;;;;3.80;2.05;;;;;;;;;;5003759;28;20050;-76
2022/04/15 00:05:45;;;;;;;5.13;2.17;;;;;;;;;;4999698;28;20482;-76
2022/04/15 00:08:12;;;;;;;3.67;2.35;;;;;;;;;;4996895;28;20054;-76
2022/04/15 00:10:45;;;;;;;2.92;1.90;;;;;;;;;;5002047;28;20111;-76
2022/04/15 00:13:13;;;;;;;3.33;2.38;;;;;;;;;;5005307;28;20050;-76
2022/04/15 00:15:40;;;;;;;2.97;2.30;;;;;;;;;;5003727;28;20049;-76
2022/04/15 00:18:06;;;;;;;3.05;2.30;;;;;;;;;;4998268;28;20042;-76
2022/04/15 00:20:32;;;;;;;2.95;2.00;;;;;;;;;;5004829;28;20425;-76
2022/04/15 00:22:59;;;;;;;2.00;1.90;;;;;;;;;;5007701;28;20044;-76
2022/04/15 00:25:25;;;;;;;2.83;2.00;;;;;;;;;;4995271;28;20128;-76
2022/04/15 00:27:52;;;;;;;1.95;1.83;;;;;;;;;;5004589;28;20088;-76
2022/04/15 00:30:19;;;;;;;3.67;2.20;;;;;;;;;;5002970;28;20046;-76
2022/04/15 00:32:45;;;;;;;2.22;2.03;;;;;;;;;;4998808;28;20116;-76
2022/04/15 00:35:11;;;;;;;2.45;1.90;;;;;;;;;;5002551;28;20137;-76
2022/04/15 00:37:37;;;;;;;2.55;1.90;;;;;;;;;;5007743;28;20519;-76
2022/04/15 00:40:06;;;;;;;1.90;1.70;;;;;;;;;;5006122;28;20040;-76
2022/04/15 00:42:32;;;;;;;2.03;1.90;;;;;;;;;;5006558;28;20045;-76
2022/04/15 00:44:58;;;;;;;2.30;2.10;;;;;;;;;;5039382;28;20467;-76
2022/04/15 00:47:24;;;;;;;2.00;1.90;;;;;;;;;;5002550;28;20050;-76
2022/04/15 00:49:50;;;;;;;2.03;1.92;;;;;;;;;;5006351;28;20045;-75
2022/04/15 00:52:18;;;;;;;2.30;2.10;;;;;;;;;;5005903;28;20179;-76
2022/04/15 00:54:45;;;;;;;3.05;2.17;;;;;;;;;;4999912;28;20058;-76
2022/04/15 00:57:12;;;;;;;1.98;1.85;;;;;;;;;;5003064;28;20505;-76
2022/04/15 00:59:39;;;;;;;2.05;1.85;;;;;;;;;;5006760;28;20433;-76
2022/04/15 01:02:05;;;;;;;2.08;1.90;;;;;;;;;;5000647;28;20394;-76
2022/04/15 01:04:32;;;;;;;3.70;1.95;;;;;;;;;;5033561;28;20155;-76
2022/04/15 01:07:03;;;;;;;2.10;1.90;;;;;;;;;;5005335;28;20473;-76
2022/04/15 01:09:32;;;;;;;5.00;2.20;;;;;;;;;;5039650;28;20107;-76
2022/04/15 01:11:59;;;;;;;2.05;1.88;;;;;;;;;;5005095;28;20087;-76
2022/04/15 01:14:26;;;;;;;4.47;2.00;;;;;;;;;;5006956;28;20153;-76
2022/04/15 01:16:52;;;;;;;1.90;1.70;;;;;;;;;;5003107;28;20042;-76
2022/04/15 01:19:19;;;;;;;2.90;1.90;;;;;;;;;;5006382;28;20140;-76
2022/04/15 01:21:45;;;;;;;2.15;1.95;;;;;;;;;;5004063;28;20133;-76
2022/04/15 01:24:11;;;;;;;3.33;2.10;;;;;;;;;;5007341;28;20049;-76
2022/04/15 01:26:41;;;;;;;3.65;2.20;;;;;;;;;;5003075;28;20394;-76
2022/04/15 01:29:07;;;;;;;2.92;2.20;;;;;;;;;;5005023;28;20513;-76
2022/04/15 01:31:33;;;;;;;4.40;2.30;;;;;;;;;;5009982;28;20054;-76
2022/04/15 01:34:00;;;;;;;3.55;2.30;;;;;;;;;;5006736;28;20082;-76
2022/04/15 01:36:26;;;;;;;3.92;2.20;;;;;;;;;;5004202;28;20485;-76
2022/04/15 01:38:53;;;;;;;4.63;2.30;;;;;;;;;;5038284;28;20050;-76
2022/04/15 01:41:19;;;;;;;4.32;2.20;;;;;;;;;;5004745;28;20050;-76
2022/04/15 01:43:45;;;;;;;3.88;2.30;;;;;;;;;;5000940;28;20049;-76
2022/04/15 01:46:11;;;;;;;3.83;2.30;;;;;;;;;;5003554;28;20053;-76
2022/04/15 01:48:37;;;;;;;3.45;2.13;;;;;;;;;;5002299;28;20049;-76
2022/04/15 01:51:03;;;;;;;3.25;2.20;;;;;;;;;;5003193;28;20044;-75
2022/04/15 01:53:29;;;;;;;4.38;2.40;;;;;;;;;;5006756;28;20029;-76
2022/04/15 01:55:55;;;;;;;5.50;2.60;;;;;;;;;;5010863;28;20038;-76
2022/04/15 01:58:21;;;;;;;5.70;2.30;;;;;;;;;;5004526;28;20047;-76
2022/04/15 02:00:47;;;;;;;6.72;2.42;;;;;;;;;;5001829;28;20113;-76
2022/04/15 02:03:13;;;;;;;6.30;2.63;;;;;;;;;;5002009;28;20048;-76
2022/04/15 02:05:39;;;;;;;6.47;2.60;;;;;;;;;;5001503;28;20077;-76
2022/04/15 02:08:05;;;;;;;3.03;2.67;;;;;;;;;;5011214;28;20065;-76
2022/04/15 02:10:32;;;;;;;3.53;2.20;;;;;;;;;;5004593;28;20048;-76
2022/04/15 02:12:57;;;;;;;4.97;2.30;;;;;;;;;;5006161;28;20569;-77
2022/04/15 02:15:24;;;;;;;3.33;2.05;;;;;;;;;;4998967;28;20151;-76
2022/04/15 02:17:50;;;;;;;2.45;2.05;;;;;;;;;;5038489;28;20049;-76
2022/04/15 02:20:15;;;;;;;2.28;2.08;;;;;;;;;;5004331;28;20049;-76
2022/04/15 02:22:42;;;;;;;5.93;2.50;;;;;;;;;;5006922;28;20042;-76
2022/04/15 02:25:08;;;;;;;5.28;2.60;;;;;;;;;;5005232;28;20132;-76
2022/04/15 02:27:34;;;;;;;5.63;2.85;;;;;;;;;;4998903;28;20034;-78
2022/04/15 02:30:00;;;;;;;3.55;2.20;;;;;;;;;;5004376;28;20123;-76
2022/04/15 02:32:26;;;;;;;2.20;1.85;;;;;;;;;;5009183;28;20141;-77
2022/04/15 02:34:52;;;;;;;4.22;2.30;;;;;;;;;;5005321;28;20121;-77
2022/04/15 02:37:18;;;;;;;3.25;2.20;;;;;;;;;;5003135;28;20158;-77
2022/04/15 02:39:44;;;;;;;4.05;2.25;;;;;;;;;;5005644;28;20460;-76
2022/04/15 02:42:10;;;;;;;4.55;2.38;;;;;;;;;;5004938;28;20045;-76
2022/04/15 02:44:37;;;;;;;2.28;2.08;;;;;;;;;;5013031;28;20056;-76
2022/04/15 02:47:03;;;;;;;2.17;1.98;;;;;;;;;;5012709;28;20053;-76
2022/04/15 02:49:29;;;;;;;5.47;2.38;;;;;;;;;;5006003;28;20050;-76
2022/04/15 02:51:55;;;;;;;2.28;2.05;;;;;;;;;;5010907;28;20038;-76
2022/04/15 02:54:22;;;;;;;4.30;2.35;;;;;;;;;;5008543;28;20057;-76
2022/04/15 02:56:48;;;;;;;3.67;2.20;;;;;;;;;;5008941;28;20089;-76
2022/04/15 02:59:16;;;;;;;2.85;2.50;;;;;;;;;;5010528;28;20132;-76
2022/04/15 03:01:42;;;;;;;3.08;2.00;;;;;;;;;;5008857;28;20050;-76
2022/04/15 03:04:08;;;;;;;1.88;1.77;;;;;;;;;;5004802;28;20050;-76
2022/04/15 03:06:34;;;;;;;3.08;1.90;;;;;;;;;;5007719;28;20052;-76
2022/04/15 03:09:00;;;;;;;2.55;2.35;;;;;;;;;;5007036;28;20045;-76
2022/04/15 03:11:26;;;;;;;2.88;1.98;;;;;;;;;;5014505;28;20054;-76
2022/04/15 03:13:52;;;;;;;3.08;1.95;;;;;;;;;;5007424;28;20046;-76
2022/04/15 03:16:18;;;;;;;4.35;2.30;;;;;;;;;;5006920;28;20389;-75
2022/04/15 03:18:44;;;;;;;2.90;2.20;;;;;;;;;;5007878;28;20057;-76
2022/04/15 03:21:10;;;;;;;2.05;1.95;;;;;;;;;;5013123;28;20042;-76
2022/04/15 03:23:42;;;;;;;3.38;2.60;;;;;;;;;;5007717;28;20046;-76
2022/04/15 03:26:08;;;;;;;3.08;2.30;;;;;;;;;;5005015;28;20042;-76
2022/04/15 03:28:34;;;;;;;3.05;2.13;;;;;;;;;;5004370;28;20052;-76
2022/04/15 03:31:00;;;;;;;2.60;2.40;;;;;;;;;;5004205;28;20058;-76
2022/04/15 03:33:28;;;;;;;3.78;2.22;;;;;;;;;;5007738;28;20138;-75
2022/04/15 03:35:54;;;;;;;4.88;2.60;;;;;;;;;;5007525;28;20054;-76
2022/04/15 03:38:20;;;;;;;3.53;2.47;;;;;;;;;;5005581;28;20041;-75
2022/04/15 03:40:46;;;;;;;2.08;1.65;;;;;;;;;;5011754;28;20046;-76
2022/04/15 03:43:12;;;;;;;2.17;2.00;;;;;;;;;;5000277;28;20046;-76
2022/04/15 03:45:38;;;;;;;2.28;2.10;;;;;;;;;;5008519;28;20402;-76
2022/04/15 03:48:04;;;;;;;2.92;2.00;;;;;;;;;;5010193;28;20077;-76
2022/04/15 03:50:30;;;;;;;3.08;2.10;;;;;;;;;;5007257;28;20088;-75
2022/04/15 03:52:56;;;;;;;2.70;2.25;;;;;;;;;;5007932;28;20048;-76
2022/04/15 03:55:24;;;;;;;2.50;2.17;;;;;;;;;;5005495;28;20046;-76
2022/04/15 03:57:50;;;;;;;2.58;2.30;;;;;;;;;;5007398;28;20113;-76
2022/04/15 04:00:20;;;;;;;2.60;2.28;;;;;;;;;;5006317;28;20573;-76
2022/04/15 04:02:47;;;;;;;3.58;2.30;;;;;;;;;;5004198;28;20049;-77
2022/04/15 04:05:13;;;;;;;2.28;2.08;;;;;;;;;;5003517;28;20454;-76
2022/04/15 04:07:39;;;;;;;3.15;2.28;;;;;;;;;;5005706;28;20049;-76
2022/04/15 04:10:05;;;;;;;4.35;2.30;;;;;;;;;;5004435;28;20045;-76
2022/04/15 04:12:33;;;;;;;3.95;2.30;;;;;;;;;;5007972;28;20523;-76
2022/04/15 04:14:59;;;;;;;4.40;2.25;;;;;;;;;;5008354;28;20046;-76
2022/04/15 04:17:25;;;;;;;4.45;2.00;;;;;;;;;;5006332;28;20049;-76
2022/04/15 04:19:52;;;;;;;3.60;2.17;;;;;;;;;;5006239;28;20044;-76
2022/04/15 04:22:18;;;;;;;2.60;2.22;;;;;;;;;;5004998;28;20042;-76
2022/04/15 04:24:44;;;;;;;3.70;2.17;;;;;;;;;;5004970;28;20077;-76
2022/04/15 04:27:10;;;;;;;3.72;2.60;;;;;;;;;;5000620;28;20092;-77
2022/04/15 04:29:36;;;;;;;3.85;2.58;;;;;;;;;;5012349;28;20137;-76
2022/04/15 04:32:02;;;;;;;3.35;2.80;;;;;;;;;;5009619;28;20128;-77
2022/04/15 04:34:28;;;;;;;5.22;2.50;;;;;;;;;;5004339;28;20100;-76
2022/04/15 04:36:54;;;;;;;5.70;3.10;;;;;;;;;;4997378;28;20050;-76
2022/04/15 04:39:21;;;;;;;5.15;3.10;;;;;;;;;;5000169;28;20038;-75
2022/04/15 04:41:47;;;;;;;5.80;3.20;;;;;;;;;;5003112;28;20101;-76
2022/04/15 04:44:13;;;;;;;5.38;2.63;;;;;;;;;;5009438;28;20471;-76
2022/04/15 04:46:39;;;;;;;5.18;2.90;;;;;;;;;;5008065;28;20034;-76
2022/04/15 04:49:05;;;;;;;2.65;2.42;;;;;;;;;;5005821;28;20046;-76
2022/04/15 04:51:31;;;;;;;3.90;3.17;;;;;;;;;;5009040;28;20116;-76
2022/04/15 04:53:57;;;;;;;3.78;3.38;;;;;;;;;;5008731;28;20044;-76
2022/04/15 04:56:23;;;;;;;4.43;3.53;;;;;;;;;;5003874;28;20054;-76
2022/04/15 04:58:49;;;;;;;4.43;3.67;;;;;;;;;;5009603;28;20050;-76
2022/04/15 05:01:15;;;;;;;4.65;3.40;;;;;;;;;;5002110;28;20092;-76
2022/04/15 05:03:41;;;;;;;5.60;3.50;;;;;;;;;;5008175;28;20050;-76
2022/04/15 05:06:07;;;;;;;5.43;3.95;;;;;;;;;;5001548;28;20060;-76
2022/04/15 05:08:33;;;;;;;4.43;3.25;;;;;;;;;;5002153;28;20080;-76
2022/04/15 05:10:59;;;;;;;4.55;3.30;;;;;;;;;;5001576;28;20059;-76
2022/04/15 05:13:25;;;;;;;4.55;3.20;;;;;;;;;;5004598;28;20045;-76
2022/04/15 05:15:51;;;;;;;4.35;3.20;;;;;;;;;;4997754;28;20045;-76
2022/04/15 05:18:18;;;;;;;3.65;3.00;;;;;;;;;;5006454;28;20054;-76
2022/04/15 05:20:45;;;;;;;3.17;2.58;;;;;;;;;;5001545;28;20096;-76
2022/04/15 05:23:12;;;;;;;2.28;2.15;;;;;;;;;;5012390;28;20045;-76
2022/04/15 05:25:38;;;;;;;3.55;3.08;;;;;;;;;;5005524;28;20486;-76
2022/04/15 05:28:05;;;;;;;3.80;3.42;;;;;;;;;;5006737;28;20044;-75
2022/04/15 05:30:31;;;;;;;4.05;3.58;;;;;;;;;;5001318;28;20065;-76
2022/04/15 05:32:57;;;;;;;3.70;2.90;;;;;;;;;;5011406;28;20049;-76
2022/04/15 05:35:23;;;;;;;4.05;3.65;;;;;;;;;;5002485;28;20069;-76
2022/04/15 05:37:49;;;;;;;6.13;3.85;;;;;;;;;;5005085;28;20046;-76
2022/04/15 05:40:15;;;;;;;4.60;4.00;;;;;;;;;;5000194;28;20046;-76
2022/04/15 05:42:42;;;;;;;3.15;2.85;;;;;;;;;;5006532;28;20832;-76
2022/04/15 05:45:09;;;;;;;3.47;3.17;;;;;;;;;;5003882;28;20049;-76
2022/04/15 05:47:36;;;;;;;3.08;2.88;;;;;;;;;;5005084;28;20088;-77
2022/04/15 05:50:02;;;;;;;3.95;3.40;;;;;;;;;;5006414;28;20124;-77
2022/04/15 05:52:28;;;;;;;4.25;3.85;;;;;;;;;;5009077;28;20107;-77
2022/04/15 05:54:54;;;;;;;4.53;4.10;;;;;;;;;;5009366;28;20050;-76
2022/04/15 05:57:21;;;;;;;4.85;4.35;;;;;;;;;;5002833;28;20041;-76
2022/04/15 05:59:47;;;;;;;4.32;3.92;;;;;;;;;;5002691;28;20062;-76
2022/04/15 06:02:13;;;;;;;6.78;4.10;;;;;;;;;;5004750;28;20079;-76
2022/04/15 06:04:39;;;;;;;4.18;3.47;;;;;;;;;;5006782;28;20042;-76
2022/04/15 06:07:05;;;;;;;3.22;2.97;;;;;;;;;;5004786;28;20045;-76
2022/04/15 06:09:31;;;;;;;3.88;3.38;;;;;;;;;;5003458;28;20046;-76
2022/04/15 06:11:57;;;;;;;3.50;3.28;;;;;;;;;;5008338;28;20417;-76
2022/04/15 06:14:23;;;;;;;4.93;3.38;;;;;;;;;;5006434;28;20536;-76
2022/04/15 06:16:49;;;;;;;4.43;3.30;;;;;;;;;;5007207;28;20038;-76
2022/04/15 06:19:16;;;;;;;4.47;2.90;;;;;;;;;;5007186;28;20609;-76
2022/04/15 06:21:42;;;;;;;3.60;3.25;;;;;;;;;;5006604;28;20046;-76
2022/04/15 06:24:08;;;;;;;3.65;3.35;;;;;;;;;;5009012;28;20408;-76
2022/04/15 06:26:35;;;;;;;3.95;3.65;;;;;;;;;;5009287;28;20596;-76
2022/04/15 06:29:01;;;;;;;3.75;3.20;;;;;;;;;;5001417;28;20081;-76
2022/04/15 06:31:27;;;;;;;3.20;3.00;;;;;;;;;;5002935;28;20054;-76
2022/04/15 06:33:53;;;;;;;3.22;3.03;;;;;;;;;;5010413;28;20104;-76
2022/04/15 06:36:20;;;;;;;2.90;2.70;;;;;;;;;;5010419;28;20041;-76
2022/04/15 06:38:46;;;;;;;2.88;2.67;;;;;;;;;;5006634;28;20054;-76
2022/04/15 06:41:12;;;;;;;3.53;2.95;;;;;;;;;;5011921;28;20465;-77
2022/04/15 06:43:38;;;;;;;3.53;3.13;;;;;;;;;;5014874;28;20049;-77
2022/04/15 06:46:05;;;;;;;3.35;3.05;;;;;;;;;;5024004;28;20053;-77
2022/04/15 06:48:31;;;;;;;2.97;2.70;;;;;;;;;;5018131;28;20482;-77
2022/04/15 06:50:57;;;;;;;3.10;2.80;;;;;;;;;;5012456;28;20081;-76
2022/04/15 06:53:23;;;;;;;4.40;2.90;;;;;;;;;;5015690;28;20156;-76
2022/04/15 06:55:53;;;;;;;3.08;2.78;;;;;;;;;;5020845;28;20038;-77
2022/04/15 06:58:19;;;;;;;2.80;2.50;;;;;;;;;;5014239;28;20180;-76
2022/04/15 07:00:46;;;;;;;3.80;2.80;;;;;;;;;;5017380;28;20045;-77
2022/04/15 07:03:12;;;;;;;2.80;2.60;;;;;;;;;;5013728;28;20053;-77
2022/04/15 07:05:43;;;;;;;2.83;2.55;;;;;;;;;;5009843;28;20090;-76
2022/04/15 07:08:10;;;;;;;3.85;3.45;;;;;;;;;;5010711;28;20129;-77
2022/04/15 07:10:39;;;;;;;4.75;4.10;;;;;;;;;;5010936;28;20089;-77
2022/04/15 07:13:05;;;;;;;6.05;4.63;;;;;;;;;;5024632;28;20058;-77
2022/04/15 07:15:31;;;;;;;9.27;5.57;;;;;;;;;;5014640;28;20489;-76
2022/04/15 07:17:59;;;;;;;6.05;5.45;;;;;;;;;;5008391;28;20042;-77
2022/04/15 07:20:26;;;;;;;5.85;5.35;;;;;;;;;;5028809;28;20053;-77
2022/04/15 07:22:58;;;;;;;5.50;5.00;;;;;;;;;;4996549;28;20040;-77
2022/04/15 07:25:25;;;;;;;5.50;5.00;;;;;;;;;;5009813;28;20121;-77
2022/04/15 07:27:51;;;;;;;6.63;5.70;;;;;;;;;;5010250;28;20308;-77
2022/04/15 07:30:20;;;;;;;6.85;5.85;;;;;;;;;;4997821;28;20049;-77
2022/04/15 07:32:46;;;;;;;7.88;6.72;;;;;;;;;;5001731;28;20053;-78
2022/04/15 07:35:12;;;;;;;7.43;6.63;;;;;;;;;;4997354;28;20251;-77
2022/04/15 07:37:39;;;;;;;7.25;6.40;;;;;;;;;;4999538;28;20047;-77
2022/04/15 07:40:05;;;;;;;7.35;6.60;;;;;;;;;;5000189;28;20052;-76
2022/04/15 07:42:31;;;;;;;8.30;7.05;;;;;;;;;;4998167;28;20069;-77
2022/04/15 07:44:57;;;;;;;7.82;6.40;;;;;;;;;;5001761;28;20081;-76
2022/04/15 07:47:23;;;;;;;8.35;7.25;;;;;;;;;;4999448;28;20172;-76
2022/04/15 07:49:50;;;;;;;9.70;7.57;;;;;;;;;;5023454;28;20037;-77
2022/04/15 07:52:16;;;;;;;10.30;7.10;;;;;;;;;;5004574;28;20053;-77
2022/04/15 07:54:42;;;;;;;8.82;7.78;;;;;;;;;;5030751;28;20042;-76
2022/04/15 07:57:08;;;;;;;9.27;8.10;;;;;;;;;;5028408;28;20045;-77
2022/04/15 07:59:35;;;;;;;10.75;8.18;;;;;;;;;;5006900;28;20054;-76
2022/04/15 08:02:03;;;;;;;9.38;7.70;;;;;;;;;;5054165;28;20204;-77
2022/04/15 08:04:31;;;;;;;9.15;7.72;;;;;;;;;;5037712;28;20053;-77
2022/04/15 08:06:57;;;;;;;9.20;7.43;;;;;;;;;;5000445;28;20081;-77
2022/04/15 08:09:23;;;;;;;9.77;8.43;;;;;;;;;;4999059;28;20085;-77
2022/04/15 08:11:49;;;;;;;10.63;8.55;;;;;;;;;;5005801;28;20057;-76
2022/04/15 08:14:15;;;;;;;9.63;7.90;;;;;;;;;;5000556;28;20054;-77
2022/04/15 08:16:41;;;;;;;8.25;6.50;;;;;;;;;;4994243;28;20091;-76
2022/04/15 08:19:07;;;;;;;9.30;6.97;;;;;;;;;;4997227;28;20457;-76
2022/04/15 08:21:33;;;;;;;10.27;7.15;;;;;;;;;;5003448;28;20468;-77
2022/04/15 08:24:01;;;;;;;10.70;7.90;;;;;;;;;;5017772;28;20444;-77
2022/04/15 08:26:27;;;;;;;9.75;7.65;;;;;;;;;;5019921;28;20546;-76
2022/04/15 08:28:53;;;;;;;10.48;7.95;;;;;;;;;;5021690;28;20120;-76
2022/04/15 08:31:19;;;;;;;10.85;8.10;;;;;;;;;;5047263;28;20148;-76
2022/04/15 08:33:46;;;;;;;9.75;7.93;;;;;;;;;;5001280;28;20049;-81
2022/04/15 08:36:12;;;;;;;11.63;8.82;;;;;;;;;;5000216;28;20042;-77
2022/04/15 08:38:38;;;;;;;10.85;7.85;;;;;;;;;;4994365;28;20486;-76
2022/04/15 08:41:06;;;;;;;10.68;8.48;;;;;;;;;;4998945;28;20107;-76
2022/04/15 08:43:32;;;;;;;9.88;8.10;;;;;;;;;;4998051;28;20092;-77
2022/04/15 08:46:02;;;;;;;8.48;7.68;;;;;;;;;;4992407;28;20448;-75
2022/04/15 08:48:29;;;;;;;10.48;7.53;;;;;;;;;;5030129;28;20097;-76
2022/04/15 08:50:58;;;;;;;9.75;7.40;;;;;;;;;;4997826;28;20050;-76
2022/04/15 08:53:24;;;;;;;8.77;7.28;;;;;;;;;;5032859;28;20080;-76
2022/04/15 08:55:50;;;;;;;9.30;7.15;;;;;;;;;;4998751;28;20050;-76
2022/04/15 08:58:16;;;;;;;9.65;7.20;;;;;;;;;;5002727;28;20050;-77
2022/04/15 09:00:42;;;;;;;9.00;7.35;;;;;;;;;;4997236;28;20046;-77
2022/04/15 09:03:08;;;;;;;9.40;7.03;;;;;;;;;;5000393;28;20053;-76
2022/04/15 09:05:34;;;;;;;7.53;6.22;;;;;;;;;;5029523;28;20041;-76
2022/04/15 09:08:02;;;;;;;7.05;5.90;;;;;;;;;;4996081;28;20042;-77
2022/04/15 09:10:28;;;;;;;7.63;6.50;;;;;;;;;;5030081;28;20037;-76
2022/04/15 09:12:54;;;;;;;7.15;6.45;;;;;;;;;;4999344;28;20049;-76
2022/04/15 09:15:23;;;;;;;8.45;6.97;;;;;;;;;;5029665;28;20064;-76
2022/04/15 09:17:50;;;;;;;7.95;6.40;;;;;;;;;;5004138;28;20037;-77
2022/04/15 09:20:17;;;;;;;7.80;6.38;;;;;;;;;;4996970;28;20065;-76
2022/04/15 09:22:43;;;;;;;8.30;6.55;;;;;;;;;;4996900;28;20045;-76
2022/04/15 09:25:10;;;;;;;7.03;6.32;;;;;;;;;;5000031;28;20045;-76
2022/04/15 09:27:36;;;;;;;7.32;5.75;;;;;;;;;;5001162;28;20037;-76
2022/04/15 09:30:03;;;;;;;8.10;5.97;;;;;;;;;;5000005;28;20061;-77
2022/04/15 09:32:30;;;;;;;8.15;6.15;;;;;;;;;;4998021;28;20410;-77
2022/04/15 09:34:56;;;;;;;8.07;6.10;;;;;;;;;;4997926;28;20096;-78
2022/04/15 09:37:23;;;;;;;6.75;5.50;;;;;;;;;;4997056;28;20056;-77
2022/04/15 09:40:07;;;;;;;8.15;6.05;;;;;;;;;;5007335;28;20159;-77
2022/04/15 09:42:36;;;;;;;6.78;5.43;;;;;;;;;;5000461;28;20180;-77
2022/04/15 09:45:16;;;;;;;6.03;5.30;;;;;;;;;;5009001;28;20045;-77
2022/04/15 09:47:43;;;;;;;7.53;5.53;;;;;;;;;;5010399;28;20050;-77
2022/04/15 09:50:31;;;;;;;6.03;5.28;;;;;;;;;;5013151;28;20045;-77
2022/04/15 09:53:14;;;;;;;6.88;4.93;;;;;;;;;;5008338;28;20048;-77
2022/04/15 09:55:41;;;;;;;5.43;4.93;;;;;;;;;;5022637;28;20096;-77
2022/04/15 09:58:20;;;;;;;9.05;5.50;;;;;;;;;;5049781;28;20585;-77
2022/04/15 10:00:48;;;;;;;6.70;5.30;;;;;;;;;;5024148;28;20041;-76
2022/04/15 10:03:21;;;;;;;7.45;5.05;;;;;;;;;;5017822;28;20045;-75
2022/04/15 10:05:49;;;;;;;5.63;4.95;;;;;;;;;;5026509;28;20041;-75
2022/04/15 10:08:16;;;;;;;5.78;4.88;;;;;;;;;;5009891;28;20449;-76
2022/04/15 10:10:42;;;;;;;6.10;4.53;;;;;;;;;;5025094;28;20505;-75
2022/04/15 10:13:08;;;;;;;7.20;4.95;;;;;;;;;;5007642;28;20141;-76
2022/04/15 10:15:37;;;;;;;5.65;4.60;;;;;;;;;;5012483;28;20124;-76
2022/04/15 10:18:03;;;;;;;6.18;4.43;;;;;;;;;;4997089;28;20072;-76
2022/04/15 10:20:30;;;;;;;9.00;5.00;;;;;;;;;;5034134;28;20066;-76
2022/04/15 10:23:03;;;;;;;4.88;4.32;;;;;;;;;;5000331;28;20547;-76
2022/04/15 10:25:30;;;;;;;5.82;5.00;;;;;;;;;;5029562;28;20077;-76
2022/04/15 10:28:10;;;;;;;6.93;5.25;;;;;;;;;;4998177;28;20534;-76
2022/04/15 10:30:36;;;;;;;6.25;4.70;;;;;;;;;;4999138;28;20493;-75
2022/04/15 10:33:02;;;;;;;5.22;4.70;;;;;;;;;;5001495;28;20482;-76
2022/04/15 10:35:32;;;;;;;6.22;4.80;;;;;;;;;;5000369;28;20054;-76
2022/04/15 10:38:00;;;;;;;7.35;5.13;;;;;;;;;;4998068;28;20057;-76
2022/04/15 10:40:30;;;;;;;8.18;5.05;;;;;;;;;;5002502;28;20054;-76
2022/04/15 10:43:14;;;;;;;5.57;4.97;;;;;;;;;;5001747;28;20062;-76
2022/04/15 10:45:40;;;;;;;6.78;5.05;;;;;;;;;;5002090;28;20038;-75
2022/04/15 10:48:07;;;;;;;6.43;4.85;;;;;;;;;;4999232;28;20046;-76
2022/04/15 10:50:34;;;;;;;6.78;5.15;;;;;;;;;;5005159;28;20061;-77
2022/04/15 10:53:17;;;;;;;6.10;4.80;;;;;;;;;;5022070;28;20050;-75
2022/04/15 10:55:44;;;;;;;5.70;4.90;;;;;;;;;;5011770;28;20041;-75
2022/04/15 10:58:12;;;;;;;6.32;4.45;;;;;;;;;;5000428;28;20549;-74
2022/04/15 11:03:24;;;;;;;5.72;4.50;;;;;;;;;;5016022;28;20101;-75
2022/04/15 11:05:50;;;;;;;4.90;4.20;;;;;;;;;;5009795;28;20057;-74
2022/04/15 11:08:20;;;;;;;5.40;4.40;;;;;;;;;;5005127;28;20045;-74
2022/04/15 11:10:54;;;;;;;6.53;4.50;;;;;;;;;;5010857;28;20053;-75
2022/04/15 11:13:27;;;;;;;4.60;4.20;;;;;;;;;;5014787;28;20120;-74
2022/04/15 11:16:18;;;;;;;5.10;4.60;;;;;;;;;;5048000;28;20049;-74
2022/04/15 11:18:44;;;;;;;5.32;4.75;;;;;;;;;;5004031;28;20125;-75
2022/04/15 11:21:17;;;;;;;5.25;4.75;;;;;;;;;;4999322;28;20074;-74
2022/04/15 11:23:43;;;;;;;;;;;;;;;;;;4999013;28;20042;-75
2022/04/15 11:26:09;;;;;;;4.85;4.40;;;;;;;;;;5015715;28;19928;-75
2022/04/15 11:28:35;;;;;;;4.53;4.13;;;;;;;;;;5009184;28;20103;-75
2022/04/15 11:31:01;;;;;;;7.15;4.90;;;;;;;;;;5013300;28;20054;-75
2022/04/15 11:33:27;;;;;;;5.03;4.35;;;;;;;;;;5009687;28;20383;-75
2022/04/15 11:35:53;;;;;;;4.80;4.10;;;;;;;;;;4996956;28;20058;-75
2022/04/15 11:38:19;;;;;;;6.93;4.88;;;;;;;;;;5000065;28;20269;-75
2022/04/15 11:40:45;;;;;;;5.47;4.72;;;;;;;;;;5001347;28;20042;-76
2022/04/15 11:43:11;;;;;;;6.25;4.53;;;;;;;;;;5008310;28;20054;-75
2022/04/15 11:45:39;;;;;;;7.40;4.53;;;;;;;;;;5001009;28;20045;-75
2022/04/15 11:48:15;;;;;;;4.70;4.20;;;;;;;;;;4997495;28;20042;-76
2022/04/15 11:50:41;;;;;;;5.00;4.25;;;;;;;;;;4998490;28;20056;-76
2022/04/15 11:53:07;;;;;;;5.47;4.72;;;;;;;;;;5002838;28;20210;-76
2022/04/15 11:55:34;;;;;;;5.95;4.40;;;;;;;;;;4999640;28;20056;-76
2022/04/15 11:58:00;;;;;;;5.63;4.40;;;;;;;;;;5000637;28;20508;-76
2022/04/15 12:00:31;;;;;;;7.10;4.50;;;;;;;;;;4998765;28;20050;-76
2022/04/15 12:03:01;;;;;;;5.00;4.13;;;;;;;;;;5005758;28;20050;-76
2022/04/15 12:05:30;;;;;;;5.18;4.28;;;;;;;;;;5003655;28;20064;-76
2022/04/15 12:07:56;;;;;;;5.03;4.20;;;;;;;;;;5003115;28;20048;-76
2022/04/15 12:10:22;;;;;;;7.05;4.53;;;;;;;;;;5046737;28;20128;-76
2022/04/15 12:12:49;;;;;;;5.47;4.22;;;;;;;;;;5038310;28;20054;-75
2022/04/15 12:15:15;;;;;;;5.35;4.80;;;;;;;;;;5004317;28;20461;-76
2022/04/15 12:17:42;;;;;;;7.28;5.30;;;;;;;;;;5004349;28;20056;-75
2022/04/15 12:20:09;;;;;;;5.93;4.28;;;;;;;;;;5000796;28;20062;-75
2022/04/15 12:22:38;;;;;;;5.13;4.43;;;;;;;;;;5002491;28;20386;-75
2022/04/15 12:25:16;;;;;;;6.80;4.72;;;;;;;;;;5045454;28;20041;-75
2022/04/15 12:27:44;;;;;;;5.45;4.47;;;;;;;;;;5012282;28;20047;-75
2022/04/15 12:30:11;;;;;;;7.47;4.90;;;;;;;;;;5012496;28;20057;-76
2022/04/15 12:32:39;;;;;;;6.78;4.55;;;;;;;;;;5004871;28;20456;-76
2022/04/15 12:35:10;;;;;;;6.78;5.30;;;;;;;;;;5013579;28;20052;-75
2022/04/15 12:37:42;;;;;;;8.40;4.80;;;;;;;;;;5009838;28;20410;-75
2022/04/15 12:40:15;;;;;;;8.48;5.38;;;;;;;;;;5045706;28;20133;-75
2022/04/15 12:42:42;;;;;;;6.25;5.35;;;;;;;;;;5041738;28;20045;-76
2022/04/15 12:45:09;;;;;;;7.70;5.35;;;;;;;;;;5008478;28;20053;-76
2022/04/15 12:47:37;;;;;;;6.63;4.95;;;;;;;;;;5011847;28;20133;-76
2022/04/15 12:50:33;;;;;;;6.18;4.50;;;;;;;;;;5002773;28;20402;-76
2022/04/15 12:53:00;;;;;;;5.18;4.60;;;;;;;;;;5040891;28;20054;-77
2022/04/15 12:55:33;;;;;;;5.03;4.25;;;;;;;;;;5002341;28;20037;-77
2022/04/15 12:58:00;;;;;;;5.25;4.43;;;;;;;;;;5007749;28;20050;-78
2022/04/15 13:00:27;;;;;;;8.73;4.47;;;;;;;;;;5007090;28;20045;-77
2022/04/15 13:02:53;;;;;;;7.20;4.20;;;;;;;;;;5005087;28;20054;-77
2022/04/15 13:05:19;;;;;;;6.47;4.50;;;;;;;;;;5006975;28;20042;-77
2022/04/15 13:07:49;;;;;;;5.95;4.45;;;;;;;;;;5020727;28;20064;-77
2022/04/15 13:10:15;;;;;;;6.05;4.63;;;;;;;;;;5002691;28;20038;-77
2022/04/15 13:12:41;;;;;;;5.53;4.20;;;;;;;;;;5007722;28;20053;-77
2022/04/15 13:15:08;;;;;;;5.43;4.68;;;;;;;;;;5014098;28;20053;-77
2022/04/15 13:17:34;;;;;;;6.20;5.10;;;;;;;;;;5020099;28;20049;-77
2022/04/15 13:20:00;;;;;;;7.15;4.80;;;;;;;;;;5012737;28;20067;-78
2022/04/15 13:22:27;;;;;;;5.30;4.43;;;;;;;;;;5007878;28;20042;-78
2022/04/15 13:24:54;;;;;;;5.70;5.05;;;;;;;;;;5009919;28;20050;-80
2022/04/15 13:27:20;;;;;;;5.72;4.68;;;;;;;;;;5006481;28;20129;-78
2022/04/15 13:29:46;;;;;;;6.57;4.60;;;;;;;;;;5008458;28;20050;-78
2022/04/15 13:32:13;;;;;;;7.22;5.00;;;;;;;;;;5011858;28;20069;-78
2022/04/15 13:34:42;;;;;;;7.07;5.15;;;;;;;;;;5018255;28;20060;-78
2022/04/15 13:37:08;;;;;;;7.95;5.07;;;;;;;;;;5013868;28;20056;-78
2022/04/15 13:39:35;;;;;;;5.20;4.72;;;;;;;;;;5016813;28;20488;-78
2022/04/15 13:42:02;;;;;;;6.57;4.97;;;;;;;;;;5025367;28;20045;-78
2022/04/15 13:44:29;;;;;;;7.00;5.30;;;;;;;;;;5031542;28;20046;-78
2022/04/15 13:46:55;;;;;;;8.00;5.00;;;;;;;;;;5011237;28;20104;-78
2022/04/15 13:49:21;;;;;;;6.75;5.30;;;;;;;;;;5012693;28;20402;-78
2022/04/15 13:51:47;;;;;;;6.50;4.95;;;;;;;;;;4991152;28;20043;-77
2022/04/15 13:56:59;;;;;;;5.15;4.53;;;;;;;;;;5024204;28;20038;-80
2022/04/15 13:59:25;;;;;;;5.85;4.80;;;;;;;;;;5011870;28;20406;-78
2022/04/15 14:01:51;;;;;;;8.07;4.78;;;;;;;;;;5017454;28;20045;-79
2022/04/15 14:04:17;;;;;;;6.53;4.75;;;;;;;;;;5024039;28;20068;-79
2022/04/15 14:06:47;;;;;;;4.95;4.40;;;;;;;;;;5008335;28;20042;-78
2022/04/15 14:09:14;;;;;;;7.68;4.28;;;;;;;;;;5002184;28;20042;-73
2022/04/15 14:11:41;;;;;;;4.32;3.88;;;;;;;;;;5007901;28;20078;-77
2022/04/15 14:14:09;;;;;;;4.68;4.28;;;;;;;;;;5006374;28;20046;-77
2022/04/15 14:16:35;;;;;;;5.25;4.10;;;;;;;;;;4998436;28;20477;-77
2022/04/15 14:19:02;;;;;;;6.15;4.38;;;;;;;;;;5006847;28;20034;-78
2022/04/15 14:21:29;;;;;;;5.63;4.70;;;;;;;;;;5010095;28;20049;-77
2022/04/15 14:23:55;;;;;;;5.53;4.88;;;;;;;;;;5004280;28;20045;-77
2022/04/15 14:26:21;;;;;;;5.20;4.50;;;;;;;;;;5010550;28;20048;-77
2022/04/15 14:28:48;;;;;;;5.80;4.63;;;;;;;;;;5017022;28;20148;-78
2022/04/15 14:31:14;;;;;;;6.60;4.50;;;;;;;;;;5029328;28;20061;-78
2022/04/15 14:33:41;;;;;;;4.70;4.22;;;;;;;;;;5012389;28;20401;-77
2022/04/15 14:36:07;;;;;;;5.97;4.63;;;;;;;;;;5027307;28;20054;-77
2022/04/15 14:38:34;;;;;;;4.40;4.00;;;;;;;;;;5012908;28;20053;-77
2022/04/15 14:41:05;;;;;;;4.97;4.47;;;;;;;;;;5001215;28;20046;-77
2022/04/15 14:43:31;;;;;;;5.07;4.68;;;;;;;;;;5018684;28;20053;-77
2022/04/15 14:45:57;;;;;;;5.07;3.78;;;;;;;;;;5030049;28;20045;-78
2022/04/15 14:48:23;;;;;;;4.72;3.97;;;;;;;;;;5009711;28;20049;-78